sensor_id;sensor_type;location;lat;lon;timestamp;P1;durP1;ratioP1;P2;durP2;ratioP2
5137;SDS011;53959;53.626;11.410;2022-12-18T00:01:56;67.90;;;23.90;;
5137;SDS011;53959;53.626;11.410;2022-12-18T00:04:24;82.57;;;26.23;;
5137;SDS011;53959;53.626;11.410;2022-12-18T00:06:50;77.53;;;24.33;;
5137;SDS011;53959;53.626;11.410;2022-12-18T00:09:16;76.03;;;25.63;;
5137;SDS011;53959;53.626;11.410;2022-12-18T00:11:42;76.47;;;25.00;;
5137;SDS011;53959;53.626;11.410;2022-12-18T00:14:08;77.60;;;25.90;;
5137;SDS011;53959;53.626;11.410;2022-12-18T00:16:36;66.67;;;23.77;;
5137;SDS011;53959;53.626;11.410;2022-12-18T00:19:02;85.33;;;25.70;;
5137;SDS011;53959;53.626;11.410;2022-12-18T00:21:28;88.03;;;26.37;;
5137;SDS011;53959;53.626;11.410;2022-12-18T00:23:55;71.93;;;24.70;;
5137;SDS011;53959;53.626;11.410;2022-12-18T00:26:22;76.33;;;24.27;;
5137;SDS011;53959;53.626;11.410;2022-12-18T00:28:49;88.07;;;24.43;;
5137;SDS011;53959;53.626;11.410;2022-12-18T00:31:17;87.07;;;25.43;;
5137;SDS011;53959;53.626;11.410;2022-12-18T00:33:46;66.73;;;23.90;;
5137;SDS011;53959;53.626;11.410;2022-12-18T00:36:13;61.53;;;23.60;;
5137;SDS011;53959;53.626;11.410;2022-12-18T00:38:41;74.37;;;24.73;;
5137;SDS011;53959;53.626;11.410;2022-12-18T00:41:07;72.43;;;22.70;;
5137;SDS011;53959;53.626;11.410;2022-12-18T00:43:34;70.07;;;23.57;;
5137;SDS011;53959;53.626;11.410;2022-12-18T00:46:00;73.67;;;22.90;;
5137;SDS011;53959;53.626;11.410;2022-12-18T00:48:25;69.70;;;23.97;;
5137;SDS011;53959;53.626;11.410;2022-12-18T00:50:51;66.17;;;23.50;;
5137;SDS011;53959;53.626;11.410;2022-12-18T00:53:17;58.13;;;21.60;;
5137;SDS011;53959;53.626;11.410;2022-12-18T00:55:42;66.37;;;23.00;;
5137;SDS011;53959;53.626;11.410;2022-12-18T00:58:08;63.37;;;23.20;;
5137;SDS011;53959;53.626;11.410;2022-12-18T01:00:35;54.40;;;21.83;;
5137;SDS011;53959;53.626;11.410;2022-12-18T01:03:01;68.23;;;22.27;;
5137;SDS011;53959;53.626;11.410;2022-12-18T01:05:27;70.00;;;23.23;;
5137;SDS011;53959;53.626;11.410;2022-12-18T01:07:52;63.07;;;23.10;;
5137;SDS011;53959;53.626;11.410;2022-12-18T01:10:18;77.03;;;22.63;;
5137;SDS011;53959;53.626;11.410;2022-12-18T01:12:44;72.43;;;23.00;;
5137;SDS011;53959;53.626;11.410;2022-12-18T01:15:09;63.73;;;23.43;;
5137;SDS011;53959;53.626;11.410;2022-12-18T01:17:36;60.70;;;21.20;;
5137;SDS011;53959;53.626;11.410;2022-12-18T01:20:03;56.57;;;21.20;;
5137;SDS011;53959;53.626;11.410;2022-12-18T01:22:29;65.30;;;20.10;;
5137;SDS011;53959;53.626;11.410;2022-12-18T01:24:54;58.33;;;20.30;;
5137;SDS011;53959;53.626;11.410;2022-12-18T01:27:20;68.60;;;21.20;;
5137;SDS011;53959;53.626;11.410;2022-12-18T01:29:45;66.60;;;21.40;;
5137;SDS011;53959;53.626;11.410;2022-12-18T01:32:10;60.23;;;19.63;;
5137;SDS011;53959;53.626;11.410;2022-12-18T01:34:36;62.53;;;21.13;;
5137;SDS011;53959;53.626;11.410;2022-12-18T01:37:05;60.67;;;20.07;;
5137;SDS011;53959;53.626;11.410;2022-12-18T01:39:30;66.90;;;21.20;;
5137;SDS011;53959;53.626;11.410;2022-12-18T01:41:58;52.40;;;20.10;;
5137;SDS011;53959;53.626;11.410;2022-12-18T01:47:15;59.80;;;20.23;;
5137;SDS011;53959;53.626;11.410;2022-12-18T01:49:46;54.93;;;19.43;;
5137;SDS011;53959;53.626;11.410;2022-12-18T01:52:12;58.37;;;21.70;;
5137;SDS011;53959;53.626;11.410;2022-12-18T01:54:38;49.17;;;18.57;;
5137;SDS011;53959;53.626;11.410;2022-12-18T01:57:04;61.23;;;18.97;;
5137;SDS011;53959;53.626;11.410;2022-12-18T01:59:30;56.40;;;19.60;;
5137;SDS011;53959;53.626;11.410;2022-12-18T02:01:57;59.70;;;20.83;;
5137;SDS011;53959;53.626;11.410;2022-12-18T02:04:24;53.13;;;17.20;;
5137;SDS011;53959;53.626;11.410;2022-12-18T02:07:01;56.23;;;18.97;;
5137;SDS011;53959;53.626;11.410;2022-12-18T02:09:39;52.67;;;17.03;;
5137;SDS011;53959;53.626;11.410;2022-12-18T02:17:53;51.13;;;16.23;;
5137;SDS011;53959;53.626;11.410;2022-12-18T02:20:32;58.30;;;19.40;;
5137;SDS011;53959;53.626;11.410;2022-12-18T02:26:05;45.70;;;16.87;;
5137;SDS011;53959;53.626;11.410;2022-12-18T02:28:49;44.73;;;16.07;;
5137;SDS011;53959;53.626;11.410;2022-12-18T02:31:24;44.07;;;16.97;;
5137;SDS011;53959;53.626;11.410;2022-12-18T02:33:53;44.13;;;15.63;;
5137;SDS011;53959;53.626;11.410;2022-12-18T02:36:21;43.30;;;16.50;;
5137;SDS011;53959;53.626;11.410;2022-12-18T02:38:48;50.23;;;16.17;;
5137;SDS011;53959;53.626;11.410;2022-12-18T02:41:16;45.00;;;15.80;;
5137;SDS011;53959;53.626;11.410;2022-12-18T02:43:46;50.40;;;16.67;;
5137;SDS011;53959;53.626;11.410;2022-12-18T02:48:58;48.63;;;16.50;;
5137;SDS011;53959;53.626;11.410;2022-12-18T02:54:45;43.53;;;15.83;;
5137;SDS011;53959;53.626;11.410;2022-12-18T03:00:04;39.13;;;14.70;;
5137;SDS011;53959;53.626;11.410;2022-12-18T03:02:47;50.70;;;15.50;;
5137;SDS011;53959;53.626;11.410;2022-12-18T03:08:34;37.97;;;14.63;;
5137;SDS011;53959;53.626;11.410;2022-12-18T03:11:11;45.40;;;16.10;;
5137;SDS011;53959;53.626;11.410;2022-12-18T03:13:43;42.00;;;14.00;;
5137;SDS011;53959;53.626;11.410;2022-12-18T03:16:18;44.10;;;15.53;;
5137;SDS011;53959;53.626;11.410;2022-12-18T03:18:50;58.67;;;16.17;;
5137;SDS011;53959;53.626;11.410;2022-12-18T03:21:21;38.83;;;13.83;;
5137;SDS011;53959;53.626;11.410;2022-12-18T03:23:50;41.00;;;15.43;;
5137;SDS011;53959;53.626;11.410;2022-12-18T03:26:19;49.97;;;14.33;;
5137;SDS011;53959;53.626;11.410;2022-12-18T03:28:51;41.47;;;15.00;;
5137;SDS011;53959;53.626;11.410;2022-12-18T03:31:24;50.57;;;14.33;;
5137;SDS011;53959;53.626;11.410;2022-12-18T03:33:54;45.17;;;15.93;;
5137;SDS011;53959;53.626;11.410;2022-12-18T03:36:22;44.30;;;17.70;;
5137;SDS011;53959;53.626;11.410;2022-12-18T03:38:49;41.93;;;14.00;;
5137;SDS011;53959;53.626;11.410;2022-12-18T03:45:12;47.13;;;15.07;;
5137;SDS011;53959;53.626;11.410;2022-12-18T03:47:15;49.93;;;16.30;;
5137;SDS011;53959;53.626;11.410;2022-12-18T03:50:07;47.00;;;15.63;;
5137;SDS011;53959;53.626;11.410;2022-12-18T03:52:45;42.27;;;15.80;;
5137;SDS011;53959;53.626;11.410;2022-12-18T03:55:17;42.97;;;14.30;;
5137;SDS011;53959;53.626;11.410;2022-12-18T03:57:44;40.43;;;14.23;;
5137;SDS011;53959;53.626;11.410;2022-12-18T04:00:13;40.70;;;15.47;;
5137;SDS011;53959;53.626;11.410;2022-12-18T04:02:42;39.50;;;13.67;;
5137;SDS011;53959;53.626;11.410;2022-12-18T04:05:12;43.20;;;15.63;;
5137;SDS011;53959;53.626;11.410;2022-12-18T04:07:39;41.43;;;16.10;;
5137;SDS011;53959;53.626;11.410;2022-12-18T04:10:06;40.00;;;16.87;;
5137;SDS011;53959;53.626;11.410;2022-12-18T04:12:33;40.83;;;14.77;;
5137;SDS011;53959;53.626;11.410;2022-12-18T04:14:58;38.83;;;14.30;;
5137;SDS011;53959;53.626;11.410;2022-12-18T04:17:24;42.57;;;15.33;;
5137;SDS011;53959;53.626;11.410;2022-12-18T04:19:49;42.67;;;14.50;;
5137;SDS011;53959;53.626;11.410;2022-12-18T04:22:15;52.50;;;15.53;;
5137;SDS011;53959;53.626;11.410;2022-12-18T04:24:41;41.93;;;16.10;;
5137;SDS011;53959;53.626;11.410;2022-12-18T04:27:06;47.93;;;17.13;;
5137;SDS011;53959;53.626;11.410;2022-12-18T04:29:32;46.63;;;16.90;;
5137;SDS011;53959;53.626;11.410;2022-12-18T04:31:58;36.67;;;13.63;;
5137;SDS011;53959;53.626;11.410;2022-12-18T04:34:23;43.77;;;15.33;;
5137;SDS011;53959;53.626;11.410;2022-12-18T04:36:49;37.90;;;14.13;;
5137;SDS011;53959;53.626;11.410;2022-12-18T04:39:17;39.60;;;14.73;;
5137;SDS011;53959;53.626;11.410;2022-12-18T04:41:43;39.47;;;14.80;;
5137;SDS011;53959;53.626;11.410;2022-12-18T04:44:08;33.37;;;14.77;;
5137;SDS011;53959;53.626;11.410;2022-12-18T04:46:34;39.77;;;14.33;;
5137;SDS011;53959;53.626;11.410;2022-12-18T04:48:59;47.47;;;14.07;;
5137;SDS011;53959;53.626;11.410;2022-12-18T04:51:25;39.73;;;14.83;;
5137;SDS011;53959;53.626;11.410;2022-12-18T04:53:50;43.83;;;14.93;;
5137;SDS011;53959;53.626;11.410;2022-12-18T04:56:16;47.60;;;15.50;;
5137;SDS011;53959;53.626;11.410;2022-12-18T04:58:42;38.10;;;13.73;;
5137;SDS011;53959;53.626;11.410;2022-12-18T05:01:09;33.93;;;14.10;;
5137;SDS011;53959;53.626;11.410;2022-12-18T05:03:38;42.93;;;14.60;;
5137;SDS011;53959;53.626;11.410;2022-12-18T05:06:04;43.87;;;14.83;;
5137;SDS011;53959;53.626;11.410;2022-12-18T05:08:30;29.07;;;10.97;;
5137;SDS011;53959;53.626;11.410;2022-12-18T05:11:03;37.33;;;13.70;;
5137;SDS011;53959;53.626;11.410;2022-12-18T05:13:47;42.40;;;15.23;;
5137;SDS011;53959;53.626;11.410;2022-12-18T05:16:13;40.07;;;14.43;;
5137;SDS011;53959;53.626;11.410;2022-12-18T05:18:39;34.37;;;12.70;;
5137;SDS011;53959;53.626;11.410;2022-12-18T05:21:05;41.90;;;14.77;;
5137;SDS011;53959;53.626;11.410;2022-12-18T05:23:34;42.70;;;14.83;;
5137;SDS011;53959;53.626;11.410;2022-12-18T05:26:00;44.47;;;15.27;;
5137;SDS011;53959;53.626;11.410;2022-12-18T05:28:28;38.73;;;15.50;;
5137;SDS011;53959;53.626;11.410;2022-12-18T05:30:56;36.87;;;15.20;;
5137;SDS011;53959;53.626;11.410;2022-12-18T05:33:25;38.77;;;14.77;;
5137;SDS011;53959;53.626;11.410;2022-12-18T05:35:55;39.30;;;14.50;;
5137;SDS011;53959;53.626;11.410;2022-12-18T05:38:22;35.07;;;13.17;;
5137;SDS011;53959;53.626;11.410;2022-12-18T05:40:50;35.50;;;13.30;;
5137;SDS011;53959;53.626;11.410;2022-12-18T05:43:16;43.30;;;13.90;;
5137;SDS011;53959;53.626;11.410;2022-12-18T05:45:43;37.37;;;13.03;;
5137;SDS011;53959;53.626;11.410;2022-12-18T05:48:09;40.97;;;14.17;;
5137;SDS011;53959;53.626;11.410;2022-12-18T05:50:38;37.77;;;15.13;;
5137;SDS011;53959;53.626;11.410;2022-12-18T05:53:04;37.83;;;14.40;;
5137;SDS011;53959;53.626;11.410;2022-12-18T05:55:37;37.93;;;13.80;;
5137;SDS011;53959;53.626;11.410;2022-12-18T05:58:04;35.33;;;13.33;;
5137;SDS011;53959;53.626;11.410;2022-12-18T06:00:31;51.17;;;13.57;;
5137;SDS011;53959;53.626;11.410;2022-12-18T06:02:59;40.90;;;15.10;;
5137;SDS011;53959;53.626;11.410;2022-12-18T06:05:25;38.67;;;13.20;;
5137;SDS011;53959;53.626;11.410;2022-12-18T06:07:50;45.07;;;15.93;;
5137;SDS011;53959;53.626;11.410;2022-12-18T06:10:16;34.90;;;13.40;;
5137;SDS011;53959;53.626;11.410;2022-12-18T06:12:42;36.10;;;13.93;;
5137;SDS011;53959;53.626;11.410;2022-12-18T06:15:07;40.70;;;12.97;;
5137;SDS011;53959;53.626;11.410;2022-12-18T06:17:33;33.50;;;12.27;;
5137;SDS011;53959;53.626;11.410;2022-12-18T06:19:59;42.37;;;14.67;;
5137;SDS011;53959;53.626;11.410;2022-12-18T06:22:26;38.90;;;13.30;;
5137;SDS011;53959;53.626;11.410;2022-12-18T06:24:52;51.30;;;16.37;;
5137;SDS011;53959;53.626;11.410;2022-12-18T06:27:17;38.97;;;14.60;;
5137;SDS011;53959;53.626;11.410;2022-12-18T06:29:43;30.50;;;12.80;;
5137;SDS011;53959;53.626;11.410;2022-12-18T06:32:09;33.70;;;12.40;;
5137;SDS011;53959;53.626;11.410;2022-12-18T06:34:34;38.03;;;14.53;;
5137;SDS011;53959;53.626;11.410;2022-12-18T06:37:02;37.90;;;13.30;;
5137;SDS011;53959;53.626;11.410;2022-12-18T06:39:27;40.80;;;14.43;;
5137;SDS011;53959;53.626;11.410;2022-12-18T06:41:53;53.83;;;17.13;;
5137;SDS011;53959;53.626;11.410;2022-12-18T06:44:19;44.87;;;13.83;;
5137;SDS011;53959;53.626;11.410;2022-12-18T06:46:44;38.07;;;14.00;;
5137;SDS011;53959;53.626;11.410;2022-12-18T06:49:10;41.23;;;14.60;;
5137;SDS011;53959;53.626;11.410;2022-12-18T06:51:36;44.93;;;16.13;;
5137;SDS011;53959;53.626;11.410;2022-12-18T06:54:02;36.30;;;14.13;;
5137;SDS011;53959;53.626;11.410;2022-12-18T06:56:27;38.27;;;14.23;;
5137;SDS011;53959;53.626;11.410;2022-12-18T06:58:53;42.30;;;13.43;;
5137;SDS011;53959;53.626;11.410;2022-12-18T07:01:19;46.40;;;14.53;;
5137;SDS011;53959;53.626;11.410;2022-12-18T07:03:45;39.00;;;14.27;;
5137;SDS011;53959;53.626;11.410;2022-12-18T07:06:15;46.43;;;14.33;;
5137;SDS011;53959;53.626;11.410;2022-12-18T07:08:42;38.57;;;14.60;;
5137;SDS011;53959;53.626;11.410;2022-12-18T07:11:08;42.83;;;15.13;;
5137;SDS011;53959;53.626;11.410;2022-12-18T07:13:34;40.77;;;13.77;;
5137;SDS011;53959;53.626;11.410;2022-12-18T07:16:03;43.40;;;14.77;;
5137;SDS011;53959;53.626;11.410;2022-12-18T07:18:31;45.57;;;15.00;;
5137;SDS011;53959;53.626;11.410;2022-12-18T07:20:57;43.17;;;14.53;;
5137;SDS011;53959;53.626;11.410;2022-12-18T07:23:22;34.90;;;15.70;;
5137;SDS011;53959;53.626;11.410;2022-12-18T07:25:48;35.00;;;13.77;;
5137;SDS011;53959;53.626;11.410;2022-12-18T07:28:13;41.37;;;14.00;;
5137;SDS011;53959;53.626;11.410;2022-12-18T07:30:39;39.77;;;14.10;;
5137;SDS011;53959;53.626;11.410;2022-12-18T07:33:05;42.40;;;13.70;;
5137;SDS011;53959;53.626;11.410;2022-12-18T07:35:32;33.20;;;13.50;;
5137;SDS011;53959;53.626;11.410;2022-12-18T07:37:58;38.93;;;13.43;;
5137;SDS011;53959;53.626;11.410;2022-12-18T07:40:26;49.23;;;14.30;;
5137;SDS011;53959;53.626;11.410;2022-12-18T07:42:51;53.57;;;14.53;;
5137;SDS011;53959;53.626;11.410;2022-12-18T07:45:17;43.73;;;14.13;;
5137;SDS011;53959;53.626;11.410;2022-12-18T07:47:42;48.63;;;16.23;;
5137;SDS011;53959;53.626;11.410;2022-12-18T07:50:08;38.03;;;13.90;;
5137;SDS011;53959;53.626;11.410;2022-12-18T07:52:34;46.30;;;15.63;;
5137;SDS011;53959;53.626;11.410;2022-12-18T07:54:59;44.20;;;15.60;;
5137;SDS011;53959;53.626;11.410;2022-12-18T07:57:25;42.27;;;15.93;;
5137;SDS011;53959;53.626;11.410;2022-12-18T07:59:50;40.00;;;14.70;;
5137;SDS011;53959;53.626;11.410;2022-12-18T08:02:16;31.07;;;13.10;;
5137;SDS011;53959;53.626;11.410;2022-12-18T08:04:41;43.37;;;14.00;;
5137;SDS011;53959;53.626;11.410;2022-12-18T08:07:07;47.27;;;15.93;;
5137;SDS011;53959;53.626;11.410;2022-12-18T08:09:32;41.10;;;13.70;;
5137;SDS011;53959;53.626;11.410;2022-12-18T08:11:58;55.33;;;16.70;;
5137;SDS011;53959;53.626;11.410;2022-12-18T08:14:24;37.10;;;13.93;;
5137;SDS011;53959;53.626;11.410;2022-12-18T08:16:49;49.90;;;15.37;;
5137;SDS011;53959;53.626;11.410;2022-12-18T08:19:15;47.60;;;17.43;;
5137;SDS011;53959;53.626;11.410;2022-12-18T08:21:40;47.63;;;16.30;;
5137;SDS011;53959;53.626;11.410;2022-12-18T08:24:06;47.47;;;14.70;;
5137;SDS011;53959;53.626;11.410;2022-12-18T08:26:31;43.50;;;15.70;;
5137;SDS011;53959;53.626;11.410;2022-12-18T08:28:58;48.90;;;17.50;;
5137;SDS011;53959;53.626;11.410;2022-12-18T08:31:25;41.13;;;14.77;;
5137;SDS011;53959;53.626;11.410;2022-12-18T08:33:52;46.53;;;15.07;;
5137;SDS011;53959;53.626;11.410;2022-12-18T08:36:18;46.90;;;17.80;;
5137;SDS011;53959;53.626;11.410;2022-12-18T08:38:45;49.93;;;18.50;;
5137;SDS011;53959;53.626;11.410;2022-12-18T08:41:12;47.00;;;15.93;;
5137;SDS011;53959;53.626;11.410;2022-12-18T08:43:39;48.23;;;17.57;;
5137;SDS011;53959;53.626;11.410;2022-12-18T08:46:25;44.03;;;14.13;;
5137;SDS011;53959;53.626;11.410;2022-12-18T08:48:52;57.93;;;16.70;;
5137;SDS011;53959;53.626;11.410;2022-12-18T08:51:19;42.00;;;14.20;;
5137;SDS011;53959;53.626;11.410;2022-12-18T08:53:45;42.77;;;15.17;;
5137;SDS011;53959;53.626;11.410;2022-12-18T08:56:11;46.07;;;14.10;;
5137;SDS011;53959;53.626;11.410;2022-12-18T08:58:38;48.40;;;15.80;;
5137;SDS011;53959;53.626;11.410;2022-12-18T09:01:06;39.70;;;14.10;;
5137;SDS011;53959;53.626;11.410;2022-12-18T09:03:37;46.60;;;16.57;;
5137;SDS011;53959;53.626;11.410;2022-12-18T09:06:03;45.67;;;16.20;;
5137;SDS011;53959;53.626;11.410;2022-12-18T09:08:28;46.60;;;14.73;;
5137;SDS011;53959;53.626;11.410;2022-12-18T09:10:54;50.30;;;17.97;;
5137;SDS011;53959;53.626;11.410;2022-12-18T09:13:20;49.53;;;17.60;;
5137;SDS011;53959;53.626;11.410;2022-12-18T09:15:49;41.77;;;15.47;;
5137;SDS011;53959;53.626;11.410;2022-12-18T09:18:17;42.00;;;14.77;;
5137;SDS011;53959;53.626;11.410;2022-12-18T09:20:44;46.93;;;15.40;;
5137;SDS011;53959;53.626;11.410;2022-12-18T09:23:10;46.73;;;14.97;;
5137;SDS011;53959;53.626;11.410;2022-12-18T09:25:36;49.40;;;18.00;;
5137;SDS011;53959;53.626;11.410;2022-12-18T09:28:03;46.20;;;16.40;;
5137;SDS011;53959;53.626;11.410;2022-12-18T09:30:29;53.13;;;18.20;;
5137;SDS011;53959;53.626;11.410;2022-12-18T09:32:55;50.70;;;16.03;;
5137;SDS011;53959;53.626;11.410;2022-12-18T09:35:21;49.63;;;14.87;;
5137;SDS011;53959;53.626;11.410;2022-12-18T09:37:46;49.73;;;14.90;;
5137;SDS011;53959;53.626;11.410;2022-12-18T09:40:19;46.23;;;16.10;;
5137;SDS011;53959;53.626;11.410;2022-12-18T09:42:48;43.17;;;15.83;;
5137;SDS011;53959;53.626;11.410;2022-12-18T09:45:20;39.00;;;15.23;;
5137;SDS011;53959;53.626;11.410;2022-12-18T09:47:46;45.17;;;15.13;;
5137;SDS011;53959;53.626;11.410;2022-12-18T09:50:35;41.80;;;16.07;;
5137;SDS011;53959;53.626;11.410;2022-12-18T09:53:03;49.47;;;15.83;;
5137;SDS011;53959;53.626;11.410;2022-12-18T09:55:36;43.07;;;15.37;;
5137;SDS011;53959;53.626;11.410;2022-12-18T10:00:30;47.10;;;15.80;;
5137;SDS011;53959;53.626;11.410;2022-12-18T10:02:59;38.70;;;15.53;;
5137;SDS011;53959;53.626;11.410;2022-12-18T10:05:37;41.87;;;16.13;;
5137;SDS011;53959;53.626;11.410;2022-12-18T10:13:23;50.13;;;15.63;;
5137;SDS011;53959;53.626;11.410;2022-12-18T10:16:03;53.20;;;18.83;;
5137;SDS011;53959;53.626;11.410;2022-12-18T10:18:59;43.90;;;16.10;;
5137;SDS011;53959;53.626;11.410;2022-12-18T10:21:42;55.90;;;18.13;;
5137;SDS011;53959;53.626;11.410;2022-12-18T10:24:37;54.90;;;18.03;;
5137;SDS011;53959;53.626;11.410;2022-12-18T10:27:34;44.00;;;14.97;;
5137;SDS011;53959;53.626;11.410;2022-12-18T10:30:00;51.87;;;17.37;;
5137;SDS011;53959;53.626;11.410;2022-12-18T10:32:37;52.47;;;17.53;;
5137;SDS011;53959;53.626;11.410;2022-12-18T10:35:04;54.40;;;18.00;;
5137;SDS011;53959;53.626;11.410;2022-12-18T10:37:30;48.90;;;16.90;;
5137;SDS011;53959;53.626;11.410;2022-12-18T10:40:11;51.80;;;17.60;;
5137;SDS011;53959;53.626;11.410;2022-12-18T10:42:41;50.90;;;17.50;;
5137;SDS011;53959;53.626;11.410;2022-12-18T10:45:10;61.13;;;18.30;;
5137;SDS011;53959;53.626;11.410;2022-12-18T10:47:42;49.27;;;17.43;;
5137;SDS011;53959;53.626;11.410;2022-12-18T10:50:18;37.53;;;14.63;;
5137;SDS011;53959;53.626;11.410;2022-12-18T10:53:04;52.17;;;16.20;;
5137;SDS011;53959;53.626;11.410;2022-12-18T10:55:34;52.37;;;17.07;;
5137;SDS011;53959;53.626;11.410;2022-12-18T11:01:02;50.97;;;16.20;;
5137;SDS011;53959;53.626;11.410;2022-12-18T11:03:41;44.73;;;17.03;;
5137;SDS011;53959;53.626;11.410;2022-12-18T11:08:37;50.00;;;17.70;;
5137;SDS011;53959;53.626;11.410;2022-12-18T11:11:04;59.83;;;15.93;;
5137;SDS011;53959;53.626;11.410;2022-12-18T11:13:49;51.03;;;16.57;;
5137;SDS011;53959;53.626;11.410;2022-12-18T11:16:28;48.77;;;17.37;;
5137;SDS011;53959;53.626;11.410;2022-12-18T11:19:07;45.03;;;14.20;;
5137;SDS011;53959;53.626;11.410;2022-12-18T11:21:51;50.00;;;17.83;;
5137;SDS011;53959;53.626;11.410;2022-12-18T11:24:21;52.27;;;18.37;;
5137;SDS011;53959;53.626;11.410;2022-12-18T11:26:48;53.60;;;17.17;;
5137;SDS011;53959;53.626;11.410;2022-12-18T11:29:18;45.37;;;16.67;;
5137;SDS011;53959;53.626;11.410;2022-12-18T11:31:48;49.33;;;17.13;;
5137;SDS011;53959;53.626;11.410;2022-12-18T11:34:16;54.20;;;17.13;;
5137;SDS011;53959;53.626;11.410;2022-12-18T11:36:46;47.57;;;16.60;;
5137;SDS011;53959;53.626;11.410;2022-12-18T11:39:17;49.27;;;19.57;;
5137;SDS011;53959;53.626;11.410;2022-12-18T11:44:50;39.00;;;14.20;;
5137;SDS011;53959;53.626;11.410;2022-12-18T11:50:05;54.63;;;17.70;;
5137;SDS011;53959;53.626;11.410;2022-12-18T11:52:39;45.13;;;16.87;;
5137;SDS011;53959;53.626;11.410;2022-12-18T11:55:12;56.37;;;18.93;;
5137;SDS011;53959;53.626;11.410;2022-12-18T12:00:15;61.77;;;20.10;;
5137;SDS011;53959;53.626;11.410;2022-12-18T12:08:00;56.13;;;17.67;;
5137;SDS011;53959;53.626;11.410;2022-12-18T12:10:39;55.07;;;17.50;;
5137;SDS011;53959;53.626;11.410;2022-12-18T12:13:12;43.40;;;17.40;;
5137;SDS011;53959;53.626;11.410;2022-12-18T12:18:37;50.90;;;17.40;;
5137;SDS011;53959;53.626;11.410;2022-12-18T12:32:27;54.10;;;17.13;;
5137;SDS011;53959;53.626;11.410;2022-12-18T12:38:08;54.60;;;17.10;;
5137;SDS011;53959;53.626;11.410;2022-12-18T12:40:37;46.87;;;17.30;;
5137;SDS011;53959;53.626;11.410;2022-12-18T12:43:31;47.97;;;17.40;;
5137;SDS011;53959;53.626;11.410;2022-12-18T12:46:09;53.60;;;17.27;;
5137;SDS011;53959;53.626;11.410;2022-12-18T12:48:40;57.47;;;20.50;;
5137;SDS011;53959;53.626;11.410;2022-12-18T12:51:19;57.80;;;16.73;;
5137;SDS011;53959;53.626;11.410;2022-12-18T12:53:48;53.83;;;17.87;;
5137;SDS011;53959;53.626;11.410;2022-12-18T12:56:14;63.10;;;19.50;;
5137;SDS011;53959;53.626;11.410;2022-12-18T12:58:55;43.17;;;16.03;;
5137;SDS011;53959;53.626;11.410;2022-12-18T13:01:52;46.63;;;15.70;;
5137;SDS011;53959;53.626;11.410;2022-12-18T13:07:13;50.90;;;18.97;;
5137;SDS011;53959;53.626;11.410;2022-12-18T13:15:48;52.80;;;17.37;;
5137;SDS011;53959;53.626;11.410;2022-12-18T13:18:28;49.33;;;17.70;;
5137;SDS011;53959;53.626;11.410;2022-12-18T13:25:48;68.33;;;19.70;;
5137;SDS011;53959;53.626;11.410;2022-12-18T13:31:14;50.97;;;19.23;;
5137;SDS011;53959;53.626;11.410;2022-12-18T13:36:41;51.73;;;17.67;;
5137;SDS011;53959;53.626;11.410;2022-12-18T13:41:46;64.10;;;19.30;;
5137;SDS011;53959;53.626;11.410;2022-12-18T13:44:58;53.17;;;17.87;;
5137;SDS011;53959;53.626;11.410;2022-12-18T13:47:36;57.00;;;18.43;;
5137;SDS011;53959;53.626;11.410;2022-12-18T13:50:09;44.63;;;16.70;;
5137;SDS011;53959;53.626;11.410;2022-12-18T13:52:49;61.97;;;18.90;;
5137;SDS011;53959;53.626;11.410;2022-12-18T13:55:17;47.67;;;18.63;;
5137;SDS011;53959;53.626;11.410;2022-12-18T13:57:45;50.43;;;17.20;;
5137;SDS011;53959;53.626;11.410;2022-12-18T14:02:49;51.83;;;18.93;;
5137;SDS011;53959;53.626;11.410;2022-12-18T14:05:22;55.27;;;18.80;;
5137;SDS011;53959;53.626;11.410;2022-12-18T14:07:52;45.23;;;17.60;;
5137;SDS011;53959;53.626;11.410;2022-12-18T14:10:19;60.43;;;18.17;;
5137;SDS011;53959;53.626;11.410;2022-12-18T14:12:47;36.73;;;14.53;;
5137;SDS011;53959;53.626;11.410;2022-12-18T14:20:27;50.97;;;16.60;;
5137;SDS011;53959;53.626;11.410;2022-12-18T14:22:55;39.20;;;15.80;;
5137;SDS011;53959;53.626;11.410;2022-12-18T14:25:22;68.70;;;21.10;;
5137;SDS011;53959;53.626;11.410;2022-12-18T14:30:35;46.50;;;17.00;;
5137;SDS011;53959;53.626;11.410;2022-12-18T14:33:12;49.87;;;16.97;;
5137;SDS011;53959;53.626;11.410;2022-12-18T14:38:22;45.80;;;18.00;;
5137;SDS011;53959;53.626;11.410;2022-12-18T14:41:19;50.43;;;18.93;;
5137;SDS011;53959;53.626;11.410;2022-12-18T14:43:45;37.80;;;15.33;;
5137;SDS011;53959;53.626;11.410;2022-12-18T14:49:03;43.00;;;16.03;;
5137;SDS011;53959;53.626;11.410;2022-12-18T14:51:42;54.77;;;18.60;;
5137;SDS011;53959;53.626;11.410;2022-12-18T14:54:17;53.30;;;16.40;;
5137;SDS011;53959;53.626;11.410;2022-12-18T14:56:44;41.43;;;16.23;;
5137;SDS011;53959;53.626;11.410;2022-12-18T15:01:51;51.47;;;18.33;;
5137;SDS011;53959;53.626;11.410;2022-12-18T15:04:33;44.43;;;17.10;;
5137;SDS011;53959;53.626;11.410;2022-12-18T15:07:09;49.57;;;17.60;;
5137;SDS011;53959;53.626;11.410;2022-12-18T15:10:09;50.63;;;16.60;;
5137;SDS011;53959;53.626;11.410;2022-12-18T15:12:44;40.43;;;17.40;;
5137;SDS011;53959;53.626;11.410;2022-12-18T15:18:10;46.77;;;17.97;;
5137;SDS011;53959;53.626;11.410;2022-12-18T15:23:27;44.13;;;17.03;;
5137;SDS011;53959;53.626;11.410;2022-12-18T15:26:03;48.83;;;17.23;;
5137;SDS011;53959;53.626;11.410;2022-12-18T15:28:38;48.83;;;16.57;;
5137;SDS011;53959;53.626;11.410;2022-12-18T15:33:39;39.77;;;16.50;;
5137;SDS011;53959;53.626;11.410;2022-12-18T15:36:14;44.60;;;17.77;;
5137;SDS011;53959;53.626;11.410;2022-12-18T15:38:41;51.53;;;19.13;;
5137;SDS011;53959;53.626;11.410;2022-12-18T15:41:13;51.47;;;18.10;;
5137;SDS011;53959;53.626;11.410;2022-12-18T15:43:39;53.77;;;17.60;;
5137;SDS011;53959;53.626;11.410;2022-12-18T15:46:12;57.20;;;20.43;;
5137;SDS011;53959;53.626;11.410;2022-12-18T15:48:40;54.63;;;18.80;;
5137;SDS011;53959;53.626;11.410;2022-12-18T15:51:15;46.83;;;19.57;;
5137;SDS011;53959;53.626;11.410;2022-12-18T15:53:44;61.03;;;19.80;;
5137;SDS011;53959;53.626;11.410;2022-12-18T15:56:12;56.30;;;19.60;;
5137;SDS011;53959;53.626;11.410;2022-12-18T15:58:58;45.87;;;17.70;;
5137;SDS011;53959;53.626;11.410;2022-12-18T16:01:26;46.93;;;18.10;;
5137;SDS011;53959;53.626;11.410;2022-12-18T16:03:52;42.47;;;16.87;;
5137;SDS011;53959;53.626;11.410;2022-12-18T16:06:19;48.30;;;18.07;;
5137;SDS011;53959;53.626;11.410;2022-12-18T16:08:44;40.57;;;15.50;;
5137;SDS011;53959;53.626;11.410;2022-12-18T16:11:20;50.13;;;18.67;;
5137;SDS011;53959;53.626;11.410;2022-12-18T16:14:02;51.30;;;18.53;;
5137;SDS011;53959;53.626;11.410;2022-12-18T16:16:40;50.90;;;18.90;;
5137;SDS011;53959;53.626;11.410;2022-12-18T16:19:06;50.67;;;19.57;;
5137;SDS011;53959;53.626;11.410;2022-12-18T16:21:32;43.43;;;18.37;;
5137;SDS011;53959;53.626;11.410;2022-12-18T16:23:57;48.57;;;18.37;;
5137;SDS011;53959;53.626;11.410;2022-12-18T16:26:23;46.73;;;18.30;;
5137;SDS011;53959;53.626;11.410;2022-12-18T16:28:48;53.00;;;18.10;;
5137;SDS011;53959;53.626;11.410;2022-12-18T16:31:14;53.00;;;19.53;;
5137;SDS011;53959;53.626;11.410;2022-12-18T16:33:40;52.60;;;18.03;;
5137;SDS011;53959;53.626;11.410;2022-12-18T16:36:05;44.40;;;17.40;;